createdAt,value
2018-07-11T00:00:35.527Z,73.84
2018-07-11T00:04:39.196Z,74.44
2018-07-11T00:08:42.833Z,74.37
2018-07-11T00:12:46.343Z,74.01
2018-07-11T00:16:55.110Z,73.79
2018-07-11T00:20:58.661Z,74.28
2018-07-11T00:25:02.295Z,74.57
2018-07-11T00:29:05.805Z,74.86
2018-07-11T00:33:09.333Z,74.83
2018-07-11T00:37:12.895Z,74.38
2018-07-11T00:41:16.505Z,74.37
2018-07-11T00:45:20.130Z,74.99
2018-07-11T00:49:23.603Z,74.67
2018-07-11T00:53:29.179Z,74.52
2018-07-11T00:57:33.841Z,74.96
2018-07-11T01:01:39.874Z,74.51
2018-07-11T01:05:43.398Z,74.64
2018-07-11T01:09:49.610Z,74.54
2018-07-11T01:13:53.337Z,74.59
2018-07-11T01:18:04.721Z,73.93
2018-07-11T01:22:08.344Z,74.46
2018-07-11T01:26:11.983Z,75.00
2018-07-11T01:30:15.556Z,75.10
2018-07-11T01:34:19.038Z,74.48
2018-07-11T01:38:22.564Z,74.76
2018-07-11T01:42:26.055Z,74.40
2018-07-11T01:46:41.705Z,74.60
2018-07-11T01:50:45.218Z,74.67
2018-07-11T01:54:48.749Z,74.37
2018-07-11T01:58:52.278Z,74.43
2018-07-11T02:02:56.119Z,74.22
2018-07-11T02:06:59.823Z,74.28
2018-07-11T02:11:03.360Z,74.36
2018-07-11T02:15:08.444Z,74.42
2018-07-11T02:19:12.346Z,74.53
2018-07-11T02:23:16.978Z,74.59
2018-07-11T02:27:20.419Z,74.54
2018-07-11T02:31:23.915Z,74.77
2018-07-11T02:35:27.415Z,74.27
2018-07-11T02:39:31.011Z,74.84
2018-07-11T02:43:34.479Z,74.70
2018-07-11T02:47:43.792Z,74.71
2018-07-11T02:51:47.310Z,74.87
2018-07-11T02:55:51.812Z,74.83
2018-07-11T02:59:55.275Z,74.74
2018-07-11T03:03:58.784Z,74.52
2018-07-11T03:08:02.326Z,74.74
2018-07-11T03:12:05.966Z,74.64
2018-07-11T03:16:09.421Z,75.04
2018-07-11T03:20:12.916Z,75.06
2018-07-11T03:24:17.295Z,75.04
2018-07-11T03:28:20.799Z,74.97
2018-07-11T03:32:24.502Z,74.60
2018-07-11T03:36:28.026Z,74.89
2018-07-11T03:40:31.489Z,74.68
2018-07-11T03:44:34.967Z,74.68
2018-07-11T03:48:38.777Z,74.41
2018-07-11T03:52:42.299Z,74.78
2018-07-11T03:56:45.796Z,74.58
2018-07-11T04:00:49.352Z,74.42
2018-07-11T04:04:52.899Z,74.42
2018-07-11T04:08:56.389Z,74.17
2018-07-11T04:13:01.558Z,74.20
2018-07-11T04:17:05.140Z,74.56
2018-07-11T04:21:08.615Z,74.45
2018-07-11T04:25:12.119Z,74.43
2018-07-11T04:29:15.632Z,75.00
2018-07-11T04:33:19.234Z,75.16
2018-07-11T04:37:23.297Z,74.57
2018-07-11T04:41:26.816Z,74.32
2018-07-11T04:45:30.297Z,74.55
2018-07-11T04:49:33.874Z,74.31
2018-07-11T04:53:44.792Z,74.19
2018-07-11T04:57:49.055Z,74.14
2018-07-11T05:01:52.554Z,74.15
2018-07-11T05:05:56.126Z,74.10
2018-07-11T05:09:59.599Z,74.13
2018-07-11T05:14:03.221Z,74.35
2018-07-11T05:18:06.724Z,73.93
2018-07-11T05:22:10.187Z,73.42
2018-07-11T05:26:13.620Z,73.64
2018-07-11T05:30:17.073Z,73.69
2018-07-11T05:34:20.551Z,74.33
2018-07-11T05:38:24.006Z,74.29
2018-07-11T05:42:27.552Z,74.52
2018-07-11T05:46:30.950Z,74.04
2018-07-11T05:50:34.425Z,73.83
2018-07-11T05:54:37.866Z,74.15
2018-07-11T05:58:41.302Z,74.26
2018-07-11T06:02:44.890Z,73.83
2018-07-11T06:06:48.405Z,73.34
2018-07-11T06:10:51.931Z,73.06
2018-07-11T06:14:55.547Z,73.23
2018-07-11T06:18:59.071Z,73.32
2018-07-11T06:23:02.612Z,72.95
2018-07-11T06:27:06.163Z,72.25
2018-07-11T06:31:09.724Z,72.96
2018-07-11T06:35:13.221Z,72.69
2018-07-11T06:39:16.843Z,71.83
2018-07-11T06:43:20.357Z,72.10
2018-07-11T06:47:28.013Z,72.07
2018-07-11T06:51:31.478Z,71.88
2018-07-11T06:55:34.976Z,72.05
2018-07-11T06:59:38.603Z,71.57
2018-07-11T07:03:47.151Z,71.50
2018-07-11T07:07:50.830Z,70.87
2018-07-11T07:11:54.298Z,71.21
2018-07-11T07:15:57.921Z,70.86
2018-07-11T07:20:01.410Z,70.68
2018-07-11T07:24:08.479Z,69.94
2018-07-11T07:28:11.963Z,69.95
2018-07-11T07:32:15.460Z,68.38
2018-07-11T07:36:18.942Z,67.78
2018-07-11T07:40:22.506Z,68.17
2018-07-11T07:44:26.003Z,68.31
2018-07-11T07:48:29.521Z,67.83
2018-07-11T07:52:33.005Z,67.78
2018-07-11T07:56:36.524Z,65.03
2018-07-11T08:00:39.982Z,65.64
2018-07-11T08:04:44.228Z,63.90
2018-07-11T08:08:47.825Z,64.08
2018-07-11T08:12:51.335Z,65.46
2018-07-11T08:16:54.841Z,64.87
2018-07-11T08:20:58.383Z,64.47
2018-07-11T08:25:12.900Z,63.41
2018-07-11T08:29:26.792Z,62.84
2018-07-11T08:36:14.530Z,63.14
2018-07-11T08:40:32.936Z,62.13
2018-07-11T08:44:48.243Z,62.02
2018-07-11T08:50:06.959Z,61.42
2018-07-11T08:54:20.439Z,61.18
2018-07-11T08:59:09.024Z,59.88
2018-07-11T09:03:22.542Z,61.26
2018-07-11T09:07:33.821Z,61.11
2018-07-11T09:11:48.158Z,60.18
2018-07-11T09:17:09.168Z,59.84
2018-07-11T09:21:23.556Z,59.96
2018-07-11T09:25:27.154Z,59.74
2018-07-11T09:29:30.753Z,59.94
2018-07-11T09:33:34.344Z,60.27
2018-07-11T09:37:37.941Z,59.28
2018-07-11T09:41:41.372Z,60.12
2018-07-11T09:45:44.939Z,59.11
2018-07-11T09:49:48.437Z,58.76
2018-07-11T09:53:51.986Z,59.05
2018-07-11T09:57:55.487Z,57.07
2018-07-11T10:01:59.044Z,57.85
2018-07-11T10:06:02.577Z,57.95
2018-07-11T10:10:06.073Z,57.41
2018-07-11T10:19:02.540Z,57.46
2018-07-11T10:23:07.232Z,57.15
2018-07-11T10:27:11.755Z,57.02
2018-07-11T10:31:16.698Z,56.63
2018-07-11T10:35:21.147Z,56.83
2018-07-11T10:39:27.758Z,55.93
2018-07-11T10:43:53.936Z,55.94
2018-07-11T10:48:08.620Z,56.76
2018-07-11T10:52:32.333Z,56.42
2018-07-11T10:56:40.760Z,56.34
2018-07-11T11:01:05.029Z,56.25
2018-07-11T11:04:48.510Z,55.89
2018-07-11T11:08:52.347Z,56.70
2018-07-11T11:12:56.147Z,55.82
2018-07-11T11:16:59.705Z,55.81
2018-07-11T11:21:03.336Z,54.34
2018-07-11T11:25:07.212Z,55.73
2018-07-11T11:29:10.667Z,56.70
2018-07-11T11:33:14.169Z,55.29
2018-07-11T11:37:17.737Z,54.68
2018-07-11T11:41:21.371Z,54.23
2018-07-11T11:45:24.831Z,53.07
2018-07-11T11:49:28.354Z,52.54
2018-07-11T11:53:31.947Z,52.56
2018-07-11T11:57:35.425Z,52.06
2018-07-11T12:01:38.875Z,51.69
2018-07-11T12:05:42.375Z,52.24
2018-07-11T12:09:45.870Z,52.07
2018-07-11T12:13:49.571Z,52.68
2018-07-11T12:17:53.046Z,52.41
2018-07-11T12:21:56.546Z,52.74
2018-07-11T12:26:03.626Z,52.50
2018-07-11T12:30:07.155Z,51.20
2018-07-11T12:34:10.643Z,52.22
2018-07-11T12:38:14.163Z,50.92
2018-07-11T12:42:17.952Z,51.88
2018-07-11T12:46:21.451Z,52.48
2018-07-11T12:50:24.928Z,49.87
2018-07-11T12:54:28.383Z,48.39
2018-07-11T12:58:32.002Z,48.55
2018-07-11T13:02:35.410Z,46.98
2018-07-11T13:06:38.955Z,46.82
2018-07-11T13:10:42.494Z,45.50
2018-07-11T13:14:45.993Z,45.27
2018-07-11T13:18:50.251Z,47.06
2018-07-11T13:22:54.778Z,47.35
2018-07-11T13:26:58.241Z,48.00
2018-07-11T13:31:01.703Z,49.81
2018-07-11T13:35:05.326Z,51.03
2018-07-11T13:39:19.397Z,50.10
2018-07-11T13:43:23.236Z,49.67
2018-07-11T13:47:26.785Z,47.96
2018-07-11T13:51:30.250Z,48.16
2018-07-11T13:55:33.731Z,49.17
2018-07-11T13:59:37.197Z,48.55
2018-07-11T14:03:40.720Z,49.64
2018-07-11T14:07:44.185Z,49.19
2018-07-11T14:11:47.642Z,49.96
2018-07-11T14:15:51.111Z,49.53
2018-07-11T14:19:54.622Z,49.80
2018-07-11T14:23:58.158Z,48.29
2018-07-11T14:28:01.738Z,47.64
2018-07-11T14:32:05.254Z,45.19
2018-07-11T14:36:08.705Z,46.11
2018-07-11T14:40:12.412Z,45.78
2018-07-11T14:44:15.874Z,46.66
2018-07-11T14:48:19.466Z,48.00
2018-07-11T14:52:23.061Z,48.64
2018-07-11T14:56:26.745Z,49.48
2018-07-11T15:00:30.238Z,49.23
2018-07-11T15:04:33.710Z,49.88
2018-07-11T15:08:37.576Z,49.55
2018-07-11T15:12:41.039Z,50.44
2018-07-11T15:16:44.558Z,51.43
2018-07-11T15:20:48.201Z,51.49
2018-07-11T15:24:51.710Z,52.44
2018-07-11T15:28:55.251Z,52.86
2018-07-11T15:32:58.824Z,53.37
2018-07-11T15:37:02.271Z,52.98
2018-07-11T15:41:05.771Z,53.57
2018-07-11T15:45:09.230Z,52.83
2018-07-11T15:49:12.761Z,52.93
2018-07-11T15:53:18.215Z,52.23
2018-07-11T15:57:35.938Z,52.95
2018-07-11T16:01:49.879Z,52.65
2018-07-11T16:05:54.708Z,53.15
2018-07-11T16:09:59.431Z,54.15
2018-07-11T16:14:03.048Z,54.18
2018-07-11T16:18:07.805Z,53.84
2018-07-11T16:22:11.449Z,53.18
2018-07-11T16:26:15.019Z,53.57
2018-07-11T16:30:18.516Z,54.11
2018-07-11T16:34:22.008Z,54.47
2018-07-11T16:38:25.667Z,53.77
2018-07-11T16:42:29.256Z,54.16
2018-07-11T16:46:32.739Z,53.89
2018-07-11T16:50:38.213Z,54.42
2018-07-11T16:54:43.194Z,53.21
2018-07-11T16:58:52.632Z,52.58
2018-07-11T17:03:10.253Z,52.95
2018-07-11T17:07:18.118Z,53.00
2018-07-11T17:11:23.952Z,53.56
2018-07-11T17:15:28.547Z,53.26
2018-07-11T17:19:38.205Z,53.05
2018-07-11T17:23:49.054Z,53.25
2018-07-11T17:27:57.159Z,53.13
2018-07-11T17:32:09.855Z,53.72
2018-07-11T17:36:13.696Z,53.78
2018-07-11T17:40:17.603Z,53.51
2018-07-11T17:44:22.034Z,53.09
2018-07-11T17:49:07.222Z,53.28
2018-07-11T17:53:22.373Z,52.84
2018-07-11T17:57:31.269Z,52.65
2018-07-11T18:01:43.608Z,52.34
2018-07-11T18:08:03.977Z,52.99
2018-07-11T18:12:21.876Z,53.44
2018-07-11T18:16:36.456Z,52.83
2018-07-11T18:21:45.771Z,52.87
2018-07-11T18:26:00.920Z,52.59
2018-07-11T18:30:13.537Z,53.04
2018-07-11T18:34:28.223Z,53.31
2018-07-11T18:38:43.098Z,52.79
2018-07-11T18:42:55.317Z,53.25
2018-07-11T18:47:14.453Z,53.33
2018-07-11T18:51:25.359Z,54.18
2018-07-11T18:55:36.755Z,54.32
2018-07-11T18:59:50.195Z,54.01
2018-07-11T19:06:07.674Z,54.33
2018-07-11T19:10:16.147Z,54.69
2018-07-11T19:14:32.872Z,54.06
2018-07-11T19:18:47.179Z,54.66
2018-07-11T19:23:01.625Z,54.30
2018-07-11T19:27:16.926Z,55.03
2018-07-11T19:31:28.975Z,54.23
2018-07-11T19:37:45.759Z,54.61
2018-07-11T19:42:08.143Z,54.96
2018-07-11T19:46:56.265Z,55.08
2018-07-11T19:53:14.010Z,55.35
2018-07-11T19:57:17.526Z,55.84
2018-07-11T20:01:21.064Z,55.63
2018-07-11T20:05:24.572Z,56.12
2018-07-11T20:09:28.233Z,56.22
2018-07-11T20:13:31.775Z,56.35
2018-07-11T20:17:35.334Z,56.35
2018-07-11T20:21:38.878Z,56.64
2018-07-11T20:25:42.392Z,57.12
2018-07-11T20:29:49.420Z,57.19
2018-07-11T20:33:52.998Z,58.10
2018-07-11T20:37:56.487Z,58.23
2018-07-11T20:42:00.114Z,58.22
2018-07-11T20:46:04.639Z,58.40
2018-07-11T20:50:09.194Z,58.49
2018-07-11T20:54:12.743Z,58.97
2018-07-11T20:58:27.314Z,59.50
2018-07-11T21:02:42.012Z,59.41
2018-07-11T21:06:57.215Z,59.52
2018-07-11T21:11:17.605Z,59.37
2018-07-11T21:15:38.991Z,59.62
2018-07-11T21:19:42.486Z,60.11
2018-07-11T21:23:46.217Z,59.72
2018-07-11T21:27:49.694Z,59.47
2018-07-11T21:31:53.161Z,59.82
2018-07-11T21:35:56.621Z,59.82
2018-07-11T21:40:00.118Z,60.22
2018-07-11T21:44:03.798Z,60.06
2018-07-11T21:48:07.499Z,60.16
2018-07-11T21:52:10.967Z,60.18
2018-07-11T21:56:14.562Z,60.00
2018-07-11T22:00:29.212Z,59.91
2018-07-11T22:04:32.800Z,60.08
2018-07-11T22:08:36.393Z,60.25
2018-07-11T22:12:40.053Z,61.19
2018-07-11T22:16:43.565Z,62.17
2018-07-11T22:20:45.847Z,62.61
2018-07-11T22:24:48.123Z,62.80
2018-07-11T22:28:50.396Z,62.93
2018-07-11T22:32:52.674Z,62.80
2018-07-11T22:36:54.991Z,63.21
2018-07-11T22:40:57.316Z,63.14
2018-07-11T22:44:59.574Z,63.25
2018-07-11T22:49:01.856Z,63.07
2018-07-11T22:53:04.099Z,63.26
2018-07-11T22:57:06.399Z,63.45
2018-07-11T23:01:08.778Z,63.60
2018-07-11T23:05:11.068Z,63.02
2018-07-11T23:09:13.351Z,63.56
2018-07-11T23:13:15.637Z,63.42
2018-07-11T23:17:17.910Z,63.74
2018-07-11T23:21:20.202Z,64.41
2018-07-11T23:25:22.471Z,65.01
2018-07-11T23:29:24.739Z,65.41
2018-07-11T23:33:26.990Z,65.49
2018-07-11T23:37:29.264Z,65.52
2018-07-11T23:41:31.580Z,65.53
2018-07-11T23:45:33.895Z,65.83
2018-07-11T23:49:36.159Z,65.34
2018-07-11T23:53:38.461Z,65.55
2018-07-11T23:57:40.774Z,65.60
